sensor_id;sensor_type;location;lat;lon;timestamp;pressure;altitude;pressure_sealevel;temperature;humidity
4981;BME280;2507;50.392;7.482;2022-09-01T00:02:00;101148.25;;;18.72;56.25
4981;BME280;2507;50.392;7.482;2022-09-01T00:04:34;101147.06;;;18.84;55.71
4981;BME280;2507;50.392;7.482;2022-09-01T00:07:01;101146.25;;;18.83;55.66
4981;BME280;2507;50.392;7.482;2022-09-01T00:09:26;101150.06;;;18.98;54.87
4981;BME280;2507;50.392;7.482;2022-09-01T00:11:52;101146.44;;;18.99;54.46
4981;BME280;2507;50.392;7.482;2022-09-01T00:14:21;101142.09;;;18.98;54.03
4981;BME280;2507;50.392;7.482;2022-09-01T00:16:47;101148.50;;;19.05;53.71
4981;BME280;2507;50.392;7.482;2022-09-01T00:19:12;101146.44;;;18.99;54.05
4981;BME280;2507;50.392;7.482;2022-09-01T00:21:41;101148.81;;;18.75;54.80
4981;BME280;2507;50.392;7.482;2022-09-01T00:24:08;101156.00;;;18.65;55.46
4981;BME280;2507;50.392;7.482;2022-09-01T00:26:34;101153.94;;;18.50;55.58
4981;BME280;2507;50.392;7.482;2022-09-01T00:29:00;101152.28;;;18.39;56.01
4981;BME280;2507;50.392;7.482;2022-09-01T00:31:25;101160.28;;;18.20;56.49
4981;BME280;2507;50.392;7.482;2022-09-01T00:33:51;101159.94;;;18.05;56.99
4981;BME280;2507;50.392;7.482;2022-09-01T00:36:18;101156.13;;;18.08;57.13
4981;BME280;2507;50.392;7.482;2022-09-01T00:38:44;101162.47;;;17.97;57.09
4981;BME280;2507;50.392;7.482;2022-09-01T00:41:09;101154.09;;;17.92;57.50
4981;BME280;2507;50.392;7.482;2022-09-01T00:46:07;101146.38;;;17.99;57.20
4981;BME280;2507;50.392;7.482;2022-09-01T00:48:33;101163.41;;;17.96;57.32
4981;BME280;2507;50.392;7.482;2022-09-01T00:51:00;101153.06;;;18.12;56.71
4981;BME280;2507;50.392;7.482;2022-09-01T00:53:26;101150.69;;;18.09;56.93
4981;BME280;2507;50.392;7.482;2022-09-01T00:55:51;101154.31;;;18.08;57.08
4981;BME280;2507;50.392;7.482;2022-09-01T00:58:17;101156.59;;;18.03;57.63
4981;BME280;2507;50.392;7.482;2022-09-01T01:00:43;101166.78;;;17.98;57.48
4981;BME280;2507;50.392;7.482;2022-09-01T01:03:12;101153.22;;;17.92;57.97
4981;BME280;2507;50.392;7.482;2022-09-01T01:05:42;101189.88;;;17.88;57.91
4981;BME280;2507;50.392;7.482;2022-09-01T01:08:19;101145.97;;;17.75;58.58
4981;BME280;2507;50.392;7.482;2022-09-01T01:10:51;101158.69;;;17.71;58.44
4981;BME280;2507;50.392;7.482;2022-09-01T01:13:16;101155.34;;;17.88;57.29
4981;BME280;2507;50.392;7.482;2022-09-01T01:15:43;101157.72;;;17.63;58.15
4981;BME280;2507;50.392;7.482;2022-09-01T01:18:10;101147.94;;;17.54;58.89
4981;BME280;2507;50.392;7.482;2022-09-01T01:20:36;101153.00;;;17.47;59.17
4981;BME280;2507;50.392;7.482;2022-09-01T01:23:35;101143.34;;;17.56;58.21
4981;BME280;2507;50.392;7.482;2022-09-01T01:26:05;101159.22;;;17.46;58.69
4981;BME280;2507;50.392;7.482;2022-09-01T01:28:34;101142.59;;;17.34;59.01
4981;BME280;2507;50.392;7.482;2022-09-01T01:31:05;101147.03;;;17.15;59.43
4981;BME280;2507;50.392;7.482;2022-09-01T01:33:38;101143.09;;;16.90;60.49
4981;BME280;2507;50.392;7.482;2022-09-01T01:36:10;101153.00;;;16.58;61.16
4981;BME280;2507;50.392;7.482;2022-09-01T01:38:41;101144.84;;;16.80;60.52
4981;BME280;2507;50.392;7.482;2022-09-01T01:41:08;101144.13;;;16.69;61.88
4981;BME280;2507;50.392;7.482;2022-09-01T01:43:33;101149.88;;;16.74;61.92
4981;BME280;2507;50.392;7.482;2022-09-01T01:45:59;101152.78;;;17.10;60.00
4981;BME280;2507;50.392;7.482;2022-09-01T01:48:27;101153.28;;;16.95;60.99
4981;BME280;2507;50.392;7.482;2022-09-01T01:50:54;101150.19;;;16.90;61.29
4981;BME280;2507;50.392;7.482;2022-09-01T01:53:25;101142.94;;;16.92;61.31
4981;BME280;2507;50.392;7.482;2022-09-01T01:55:50;101146.97;;;16.86;61.34
4981;BME280;2507;50.392;7.482;2022-09-01T01:58:17;101149.44;;;16.78;61.44
4981;BME280;2507;50.392;7.482;2022-09-01T02:00:48;101149.31;;;16.70;61.89
4981;BME280;2507;50.392;7.482;2022-09-01T02:03:17;101148.13;;;16.54;62.38
4981;BME280;2507;50.392;7.482;2022-09-01T02:05:45;101154.69;;;16.59;62.22
4981;BME280;2507;50.392;7.482;2022-09-01T02:08:12;101149.09;;;16.32;63.00
4981;BME280;2507;50.392;7.482;2022-09-01T02:10:44;101149.13;;;16.11;62.95
4981;BME280;2507;50.392;7.482;2022-09-01T02:13:11;101157.13;;;16.00;63.43
4981;BME280;2507;50.392;7.482;2022-09-01T02:15:45;101164.50;;;15.97;63.68
4981;BME280;2507;50.392;7.482;2022-09-01T02:18:14;101157.09;;;15.91;64.47
4981;BME280;2507;50.392;7.482;2022-09-01T02:20:42;101162.09;;;15.73;65.13
4981;BME280;2507;50.392;7.482;2022-09-01T02:23:08;101159.97;;;15.88;65.10
4981;BME280;2507;50.392;7.482;2022-09-01T02:25:42;101154.88;;;15.75;64.45
4981;BME280;2507;50.392;7.482;2022-09-01T02:28:09;101157.81;;;15.82;64.14
4981;BME280;2507;50.392;7.482;2022-09-01T02:30:36;101155.66;;;15.87;64.08
4981;BME280;2507;50.392;7.482;2022-09-01T02:33:04;101151.38;;;16.16;62.89
4981;BME280;2507;50.392;7.482;2022-09-01T02:35:29;101147.38;;;16.21;62.36
4981;BME280;2507;50.392;7.482;2022-09-01T02:37:59;101145.44;;;16.03;62.79
4981;BME280;2507;50.392;7.482;2022-09-01T02:40:26;101163.47;;;15.88;63.80
4981;BME280;2507;50.392;7.482;2022-09-01T02:42:55;101150.34;;;16.07;63.53
4981;BME280;2507;50.392;7.482;2022-09-01T02:45:20;101141.38;;;15.99;64.21
4981;BME280;2507;50.392;7.482;2022-09-01T02:47:46;101137.06;;;15.98;64.13
4981;BME280;2507;50.392;7.482;2022-09-01T02:50:13;101136.34;;;15.96;64.66
4981;BME280;2507;50.392;7.482;2022-09-01T02:52:42;101140.28;;;16.01;64.74
4981;BME280;2507;50.392;7.482;2022-09-01T02:55:08;101144.47;;;16.04;64.60
4981;BME280;2507;50.392;7.482;2022-09-01T02:57:33;101137.94;;;16.08;64.26
4981;BME280;2507;50.392;7.482;2022-09-01T03:00:00;101130.84;;;15.88;63.88
4981;BME280;2507;50.392;7.482;2022-09-01T03:02:26;101148.44;;;15.89;63.68
4981;BME280;2507;50.392;7.482;2022-09-01T03:04:53;101132.06;;;15.84;63.82
4981;BME280;2507;50.392;7.482;2022-09-01T03:07:19;101137.50;;;15.62;64.98
4981;BME280;2507;50.392;7.482;2022-09-01T03:09:48;101143.22;;;15.46;65.50
4981;BME280;2507;50.392;7.482;2022-09-01T03:12:13;101138.69;;;15.26;65.90
4981;BME280;2507;50.392;7.482;2022-09-01T03:14:39;101144.59;;;15.61;65.04
4981;BME280;2507;50.392;7.482;2022-09-01T03:17:04;101145.09;;;15.55;64.95
4981;BME280;2507;50.392;7.482;2022-09-01T03:19:29;101144.50;;;15.52;65.51
4981;BME280;2507;50.392;7.482;2022-09-01T03:22:04;101140.16;;;15.62;65.05
4981;BME280;2507;50.392;7.482;2022-09-01T03:24:30;101145.09;;;15.55;66.03
4981;BME280;2507;50.392;7.482;2022-09-01T03:26:56;101140.97;;;15.62;66.01
4981;BME280;2507;50.392;7.482;2022-09-01T03:29:21;101144.91;;;15.68;65.72
4981;BME280;2507;50.392;7.482;2022-09-01T03:31:47;101135.09;;;15.59;65.39
4981;BME280;2507;50.392;7.482;2022-09-01T03:34:12;101140.44;;;15.48;66.14
4981;BME280;2507;50.392;7.482;2022-09-01T03:36:38;101137.78;;;15.48;65.79
4981;BME280;2507;50.392;7.482;2022-09-01T03:39:04;101141.03;;;15.40;65.43
4981;BME280;2507;50.392;7.482;2022-09-01T03:41:29;101144.63;;;15.07;66.95
4981;BME280;2507;50.392;7.482;2022-09-01T03:43:55;101148.50;;;15.03;67.43
4981;BME280;2507;50.392;7.482;2022-09-01T03:46:26;101140.31;;;15.06;67.29
4981;BME280;2507;50.392;7.482;2022-09-01T03:48:56;101139.06;;;15.21;66.40
4981;BME280;2507;50.392;7.482;2022-09-01T03:51:23;101141.94;;;15.18;66.47
4981;BME280;2507;50.392;7.482;2022-09-01T03:53:52;101137.94;;;15.03;66.87
4981;BME280;2507;50.392;7.482;2022-09-01T03:56:22;101141.28;;;15.05;67.29
4981;BME280;2507;50.392;7.482;2022-09-01T03:58:49;101140.53;;;15.14;66.82
4981;BME280;2507;50.392;7.482;2022-09-01T04:01:16;101138.47;;;15.18;66.79
4981;BME280;2507;50.392;7.482;2022-09-01T04:03:43;101135.44;;;15.22;66.30
4981;BME280;2507;50.392;7.482;2022-09-01T04:06:12;101145.44;;;15.19;66.81
4981;BME280;2507;50.392;7.482;2022-09-01T04:08:38;101139.31;;;15.18;66.78
4981;BME280;2507;50.392;7.482;2022-09-01T04:11:14;101146.50;;;15.16;67.46
4981;BME280;2507;50.392;7.482;2022-09-01T04:13:42;101152.47;;;14.87;67.02
4981;BME280;2507;50.392;7.482;2022-09-01T04:16:19;101143.72;;;14.64;68.08
4981;BME280;2507;50.392;7.482;2022-09-01T04:19:04;101141.81;;;14.66;68.50
4981;BME280;2507;50.392;7.482;2022-09-01T04:21:40;101135.69;;;14.66;68.79
4981;BME280;2507;50.392;7.482;2022-09-01T04:24:07;101146.63;;;14.72;68.49
4981;BME280;2507;50.392;7.482;2022-09-01T04:26:35;101149.13;;;14.85;68.02
4981;BME280;2507;50.392;7.482;2022-09-01T04:29:02;101136.19;;;14.71;67.78
4981;BME280;2507;50.392;7.482;2022-09-01T04:31:27;101145.78;;;14.61;67.79
4981;BME280;2507;50.392;7.482;2022-09-01T04:33:54;101150.78;;;14.19;68.84
4981;BME280;2507;50.392;7.482;2022-09-01T04:36:22;101148.88;;;14.21;70.39
4981;BME280;2507;50.392;7.482;2022-09-01T04:38:52;101148.28;;;14.40;69.31
4981;BME280;2507;50.392;7.482;2022-09-01T04:41:19;101149.25;;;14.39;69.03
4981;BME280;2507;50.392;7.482;2022-09-01T04:43:47;101152.38;;;14.44;69.48
4981;BME280;2507;50.392;7.482;2022-09-01T04:46:13;101153.22;;;14.56;68.87
4981;BME280;2507;50.392;7.482;2022-09-01T04:48:39;101150.47;;;14.57;68.87
4981;BME280;2507;50.392;7.482;2022-09-01T04:51:08;101162.47;;;14.50;69.45
4981;BME280;2507;50.392;7.482;2022-09-01T04:53:35;101151.06;;;14.61;69.32
4981;BME280;2507;50.392;7.482;2022-09-01T04:56:07;101157.31;;;14.60;68.72
4981;BME280;2507;50.392;7.482;2022-09-01T04:58:34;101153.94;;;14.69;68.74
4981;BME280;2507;50.392;7.482;2022-09-01T05:01:01;101155.47;;;14.82;68.95
4981;BME280;2507;50.392;7.482;2022-09-01T05:03:30;101160.00;;;15.02;68.40
4981;BME280;2507;50.392;7.482;2022-09-01T05:05:56;101154.66;;;15.35;67.58
4981;BME280;2507;50.392;7.482;2022-09-01T05:08:25;101161.31;;;15.62;66.72
4981;BME280;2507;50.392;7.482;2022-09-01T05:10:51;101150.19;;;16.29;64.83
4981;BME280;2507;50.392;7.482;2022-09-01T05:13:20;101165.47;;;17.16;62.60
4981;BME280;2507;50.392;7.482;2022-09-01T05:15:47;101148.22;;;17.70;60.79
4981;BME280;2507;50.392;7.482;2022-09-01T05:18:23;101162.25;;;18.27;57.96
4981;BME280;2507;50.392;7.482;2022-09-01T05:20:50;101156.59;;;18.86;56.81
4981;BME280;2507;50.392;7.482;2022-09-01T05:23:17;101145.03;;;19.75;54.26
4981;BME280;2507;50.392;7.482;2022-09-01T05:25:45;101144.56;;;20.82;52.24
4981;BME280;2507;50.392;7.482;2022-09-01T05:28:17;101147.03;;;21.25;48.86
4981;BME280;2507;50.392;7.482;2022-09-01T05:30:44;101145.19;;;21.10;48.49
4981;BME280;2507;50.392;7.482;2022-09-01T05:33:12;101161.75;;;21.21;48.39
4981;BME280;2507;50.392;7.482;2022-09-01T05:35:42;101151.44;;;21.59;47.50
4981;BME280;2507;50.392;7.482;2022-09-01T05:38:16;101162.38;;;22.68;46.04
4981;BME280;2507;50.392;7.482;2022-09-01T05:40:44;101161.94;;;23.79;43.46
4981;BME280;2507;50.392;7.482;2022-09-01T05:43:18;101146.44;;;24.26;41.43
4981;BME280;2507;50.392;7.482;2022-09-01T05:45:44;101154.28;;;23.91;41.82
4981;BME280;2507;50.392;7.482;2022-09-01T05:48:12;101147.63;;;24.39;41.07
4981;BME280;2507;50.392;7.482;2022-09-01T05:50:40;101148.72;;;24.15;41.83
4981;BME280;2507;50.392;7.482;2022-09-01T05:53:10;101153.66;;;24.41;41.01
4981;BME280;2507;50.392;7.482;2022-09-01T05:55:40;101155.13;;;24.43;40.92
4981;BME280;2507;50.392;7.482;2022-09-01T05:58:08;101151.84;;;24.70;40.47
4981;BME280;2507;50.392;7.482;2022-09-01T06:00:38;101149.31;;;25.19;39.69
4981;BME280;2507;50.392;7.482;2022-09-01T06:03:04;101148.50;;;26.58;37.98
4981;BME280;2507;50.392;7.482;2022-09-01T06:05:34;101149.72;;;27.50;36.16
4981;BME280;2507;50.392;7.482;2022-09-01T06:08:01;101157.44;;;28.38;35.04
4981;BME280;2507;50.392;7.482;2022-09-01T06:10:26;101153.84;;;28.64;34.07
4981;BME280;2507;50.392;7.482;2022-09-01T06:12:53;101157.41;;;29.08;33.48
4981;BME280;2507;50.392;7.482;2022-09-01T06:15:18;101162.16;;;29.88;32.72
4981;BME280;2507;50.392;7.482;2022-09-01T06:17:45;101154.19;;;30.43;31.76
4981;BME280;2507;50.392;7.482;2022-09-01T06:20:11;101155.19;;;30.84;30.99
4981;BME280;2507;50.392;7.482;2022-09-01T06:22:36;101158.91;;;31.20;30.44
4981;BME280;2507;50.392;7.482;2022-09-01T06:25:01;101150.63;;;30.60;30.96
4981;BME280;2507;50.392;7.482;2022-09-01T06:27:31;101146.94;;;30.55;31.59
4981;BME280;2507;50.392;7.482;2022-09-01T06:29:57;101151.47;;;30.61;31.45
4981;BME280;2507;50.392;7.482;2022-09-01T06:32:22;101151.25;;;30.80;31.08
4981;BME280;2507;50.392;7.482;2022-09-01T06:34:50;101146.94;;;30.37;31.38
4981;BME280;2507;50.392;7.482;2022-09-01T06:37:16;101154.88;;;30.74;31.60
4981;BME280;2507;50.392;7.482;2022-09-01T06:39:46;101155.41;;;30.83;31.63
4981;BME280;2507;50.392;7.482;2022-09-01T06:42:12;101152.69;;;31.01;30.70
4981;BME280;2507;50.392;7.482;2022-09-01T06:44:37;101151.91;;;31.12;30.69
4981;BME280;2507;50.392;7.482;2022-09-01T06:47:03;101153.16;;;30.80;31.35
4981;BME280;2507;50.392;7.482;2022-09-01T06:49:29;101150.06;;;30.94;30.70
4981;BME280;2507;50.392;7.482;2022-09-01T06:51:59;101156.28;;;30.77;30.97
4981;BME280;2507;50.392;7.482;2022-09-01T06:54:24;101167.19;;;31.25;30.51
4981;BME280;2507;50.392;7.482;2022-09-01T06:56:50;101155.50;;;31.24;30.48
4981;BME280;2507;50.392;7.482;2022-09-01T06:59:15;101157.91;;;31.73;30.11
4981;BME280;2507;50.392;7.482;2022-09-01T07:01:40;101155.72;;;31.93;30.24
4981;BME280;2507;50.392;7.482;2022-09-01T07:04:06;101162.22;;;32.04;30.36
4981;BME280;2507;50.392;7.482;2022-09-01T07:06:31;101164.00;;;32.33;29.88
4981;BME280;2507;50.392;7.482;2022-09-01T07:08:58;101162.00;;;31.94;29.21
4981;BME280;2507;50.392;7.482;2022-09-01T07:11:27;101163.84;;;31.82;29.93
4981;BME280;2507;50.392;7.482;2022-09-01T07:14:03;101170.19;;;31.35;30.59
4981;BME280;2507;50.392;7.482;2022-09-01T07:16:31;101173.00;;;32.11;29.53
4981;BME280;2507;50.392;7.482;2022-09-01T07:18:59;101171.00;;;32.18;28.70
4981;BME280;2507;50.392;7.482;2022-09-01T07:21:27;101165.03;;;33.58;27.82
4981;BME280;2507;50.392;7.482;2022-09-01T07:23:53;101168.66;;;33.35;27.82
4981;BME280;2507;50.392;7.482;2022-09-01T07:26:19;101165.50;;;33.55;27.38
4981;BME280;2507;50.392;7.482;2022-09-01T07:28:48;101169.09;;;33.16;27.62
4981;BME280;2507;50.392;7.482;2022-09-01T07:31:30;101164.34;;;32.94;27.96
4981;BME280;2507;50.392;7.482;2022-09-01T07:34:02;101168.06;;;33.33;27.79
4981;BME280;2507;50.392;7.482;2022-09-01T07:36:29;101162.56;;;34.23;26.08
4981;BME280;2507;50.392;7.482;2022-09-01T07:38:55;101161.78;;;34.06;26.31
4981;BME280;2507;50.392;7.482;2022-09-01T07:41:23;101163.91;;;33.87;26.61
4981;BME280;2507;50.392;7.482;2022-09-01T07:43:49;101165.44;;;32.13;27.89
4981;BME280;2507;50.392;7.482;2022-09-01T07:46:19;101170.50;;;31.27;29.34
4981;BME280;2507;50.392;7.482;2022-09-01T07:48:45;101162.09;;;30.20;30.53
4981;BME280;2507;50.392;7.482;2022-09-01T07:51:13;101163.88;;;27.85;33.58
4981;BME280;2507;50.392;7.482;2022-09-01T07:53:42;101167.41;;;27.98;33.59
4981;BME280;2507;50.392;7.482;2022-09-01T07:56:10;101156.22;;;28.08;33.63
4981;BME280;2507;50.392;7.482;2022-09-01T07:58:38;101168.06;;;28.07;33.59
4981;BME280;2507;50.392;7.482;2022-09-01T08:01:08;101157.28;;;29.41;31.51
4981;BME280;2507;50.392;7.482;2022-09-01T08:03:33;101157.50;;;30.99;29.84
4981;BME280;2507;50.392;7.482;2022-09-01T08:06:08;101160.97;;;30.88;29.81
4981;BME280;2507;50.392;7.482;2022-09-01T08:08:37;101157.97;;;30.96;29.81
4981;BME280;2507;50.392;7.482;2022-09-01T08:11:04;101157.88;;;30.66;29.65
4981;BME280;2507;50.392;7.482;2022-09-01T08:13:32;101162.25;;;30.49;30.22
4981;BME280;2507;50.392;7.482;2022-09-01T08:15:57;101155.13;;;29.81;30.96
4981;BME280;2507;50.392;7.482;2022-09-01T08:18:23;101159.97;;;29.41;31.45
4981;BME280;2507;50.392;7.482;2022-09-01T08:20:48;101155.84;;;30.19;31.03
4981;BME280;2507;50.392;7.482;2022-09-01T08:23:16;101158.13;;;28.91;32.09
4981;BME280;2507;50.392;7.482;2022-09-01T08:25:44;101153.31;;;27.96;33.19
4981;BME280;2507;50.392;7.482;2022-09-01T08:28:11;101165.53;;;27.73;33.70
4981;BME280;2507;50.392;7.482;2022-09-01T08:30:39;101152.59;;;27.42;34.56
4981;BME280;2507;50.392;7.482;2022-09-01T08:33:05;101151.63;;;28.15;33.42
4981;BME280;2507;50.392;7.482;2022-09-01T08:35:30;101145.78;;;28.38;32.34
4981;BME280;2507;50.392;7.482;2022-09-01T08:37:57;101150.31;;;28.57;32.02
4981;BME280;2507;50.392;7.482;2022-09-01T08:40:23;101148.53;;;28.11;32.41
4981;BME280;2507;50.392;7.482;2022-09-01T08:43:05;101149.31;;;27.66;33.49
4981;BME280;2507;50.392;7.482;2022-09-01T08:48:19;101156.09;;;26.82;34.83
4981;BME280;2507;50.392;7.482;2022-09-01T08:50:49;101148.50;;;26.58;35.06
4981;BME280;2507;50.392;7.482;2022-09-01T08:53:26;101142.25;;;24.97;38.88
4981;BME280;2507;50.392;7.482;2022-09-01T08:55:57;101142.25;;;24.53;39.50
4981;BME280;2507;50.392;7.482;2022-09-01T08:58:23;101148.94;;;24.43;39.66
4981;BME280;2507;50.392;7.482;2022-09-01T09:00:58;101146.03;;;24.29;40.25
4981;BME280;2507;50.392;7.482;2022-09-01T09:03:37;101150.97;;;24.84;38.56
4981;BME280;2507;50.392;7.482;2022-09-01T09:08:51;101138.47;;;25.27;38.00
4981;BME280;2507;50.392;7.482;2022-09-01T09:16:24;101138.56;;;24.98;38.78
4981;BME280;2507;50.392;7.482;2022-09-01T09:18:56;101135.63;;;25.14;38.49
4981;BME280;2507;50.392;7.482;2022-09-01T09:21:28;101130.66;;;25.32;39.01
4981;BME280;2507;50.392;7.482;2022-09-01T09:24:05;101136.16;;;25.60;38.20
4981;BME280;2507;50.392;7.482;2022-09-01T09:26:32;101137.25;;;25.93;37.46
4981;BME280;2507;50.392;7.482;2022-09-01T09:28:58;101143.91;;;26.18;37.02
4981;BME280;2507;50.392;7.482;2022-09-01T09:31:29;101126.72;;;26.19;36.86
4981;BME280;2507;50.392;7.482;2022-09-01T09:33:55;101125.31;;;25.74;38.11
4981;BME280;2507;50.392;7.482;2022-09-01T09:36:29;101122.50;;;25.40;38.58
4981;BME280;2507;50.392;7.482;2022-09-01T09:39:15;101117.44;;;25.31;39.11
4981;BME280;2507;50.392;7.482;2022-09-01T09:41:42;101113.75;;;25.53;38.56
4981;BME280;2507;50.392;7.482;2022-09-01T09:44:24;101111.66;;;25.55;38.95
4981;BME280;2507;50.392;7.482;2022-09-01T09:46:50;101111.34;;;25.64;39.03
4981;BME280;2507;50.392;7.482;2022-09-01T09:51:46;101116.72;;;26.13;38.16
4981;BME280;2507;50.392;7.482;2022-09-01T09:54:28;101101.81;;;25.89;38.43
4981;BME280;2507;50.392;7.482;2022-09-01T09:59:59;101094.56;;;26.45;36.90
4981;BME280;2507;50.392;7.482;2022-09-01T10:02:40;101101.03;;;26.98;36.56
4981;BME280;2507;50.392;7.482;2022-09-01T10:05:34;101099.94;;;26.86;36.81
4981;BME280;2507;50.392;7.482;2022-09-01T10:07:59;101095.81;;;26.83;36.72
4981;BME280;2507;50.392;7.482;2022-09-01T10:10:29;101086.72;;;26.50;37.40
4981;BME280;2507;50.392;7.482;2022-09-01T10:12:56;101091.06;;;26.51;37.29
4981;BME280;2507;50.392;7.482;2022-09-01T10:15:25;101088.03;;;26.27;37.86
4981;BME280;2507;50.392;7.482;2022-09-01T10:17:54;101095.84;;;26.15;37.98
4981;BME280;2507;50.392;7.482;2022-09-01T10:20:24;101081.59;;;26.62;37.59
4981;BME280;2507;50.392;7.482;2022-09-01T10:22:51;101106.00;;;26.94;36.86
4981;BME280;2507;50.392;7.482;2022-09-01T10:25:22;101103.25;;;26.81;37.02
4981;BME280;2507;50.392;7.482;2022-09-01T10:28:11;101087.56;;;27.04;36.73
4981;BME280;2507;50.392;7.482;2022-09-01T10:30:41;101094.25;;;27.28;36.45
4981;BME280;2507;50.392;7.482;2022-09-01T10:33:08;101077.06;;;27.29;36.37
4981;BME280;2507;50.392;7.482;2022-09-01T10:35:36;101073.97;;;27.52;35.55
4981;BME280;2507;50.392;7.482;2022-09-01T10:38:07;101087.88;;;27.42;35.81
4981;BME280;2507;50.392;7.482;2022-09-01T10:43:21;101072.06;;;27.19;35.71
4981;BME280;2507;50.392;7.482;2022-09-01T10:45:45;101060.59;;;26.91;36.80
4981;BME280;2507;50.392;7.482;2022-09-01T10:50:50;101067.91;;;25.88;38.70
4981;BME280;2507;50.392;7.482;2022-09-01T10:56:23;101069.09;;;25.86;38.90
4981;BME280;2507;50.392;7.482;2022-09-01T11:04:12;101063.91;;;25.78;38.92
4981;BME280;2507;50.392;7.482;2022-09-01T11:09:18;101064.63;;;25.65;38.90
4981;BME280;2507;50.392;7.482;2022-09-01T11:14:32;101067.16;;;25.73;38.98
4981;BME280;2507;50.392;7.482;2022-09-01T11:17:16;101060.97;;;25.73;38.36
4981;BME280;2507;50.392;7.482;2022-09-01T11:19:45;101054.69;;;25.66;38.40
4981;BME280;2507;50.392;7.482;2022-09-01T11:27:02;101065.50;;;25.72;38.45
4981;BME280;2507;50.392;7.482;2022-09-01T11:29:54;101049.50;;;25.92;38.23
4981;BME280;2507;50.392;7.482;2022-09-01T11:32:24;101045.78;;;25.93;38.24
4981;BME280;2507;50.392;7.482;2022-09-01T11:34:51;101045.41;;;26.02;38.38
4981;BME280;2507;50.392;7.482;2022-09-01T11:37:21;101043.91;;;26.21;39.38
4981;BME280;2507;50.392;7.482;2022-09-01T11:39:53;101038.84;;;26.46;38.27
4981;BME280;2507;50.392;7.482;2022-09-01T11:42:28;101041.34;;;26.94;36.49
4981;BME280;2507;50.392;7.482;2022-09-01T11:45:02;101059.69;;;27.38;35.32
4981;BME280;2507;50.392;7.482;2022-09-01T11:47:38;101041.19;;;27.68;35.19
4981;BME280;2507;50.392;7.482;2022-09-01T11:50:33;101039.94;;;28.03;34.32
4981;BME280;2507;50.392;7.482;2022-09-01T11:53:03;101040.16;;;27.82;34.01
4981;BME280;2507;50.392;7.482;2022-09-01T11:55:35;101032.91;;;27.63;34.43
4981;BME280;2507;50.392;7.482;2022-09-01T11:58:02;101041.63;;;27.65;34.09
4981;BME280;2507;50.392;7.482;2022-09-01T12:00:30;101036.22;;;27.39;34.56
4981;BME280;2507;50.392;7.482;2022-09-01T12:02:56;101037.00;;;27.26;34.58
4981;BME280;2507;50.392;7.482;2022-09-01T12:05:34;101033.47;;;27.25;34.58
4981;BME280;2507;50.392;7.482;2022-09-01T12:08:03;101031.25;;;27.49;34.47
4981;BME280;2507;50.392;7.482;2022-09-01T12:13:09;101021.03;;;28.03;33.39
4981;BME280;2507;50.392;7.482;2022-09-01T12:15:38;101008.78;;;27.87;33.70
4981;BME280;2507;50.392;7.482;2022-09-01T12:18:19;101010.47;;;27.95;33.13
4981;BME280;2507;50.392;7.482;2022-09-01T12:20:46;101011.47;;;27.87;33.07
4981;BME280;2507;50.392;7.482;2022-09-01T12:23:33;101011.97;;;27.58;33.37
4981;BME280;2507;50.392;7.482;2022-09-01T12:26:02;101001.81;;;27.47;33.56
4981;BME280;2507;50.392;7.482;2022-09-01T12:28:30;100998.47;;;27.52;33.92
4981;BME280;2507;50.392;7.482;2022-09-01T12:30:58;100992.41;;;27.76;34.00
4981;BME280;2507;50.392;7.482;2022-09-01T12:33:24;100995.31;;;27.81;33.24
4981;BME280;2507;50.392;7.482;2022-09-01T12:35:51;100999.47;;;27.96;33.36
4981;BME280;2507;50.392;7.482;2022-09-01T12:40:46;100990.13;;;27.79;33.48
4981;BME280;2507;50.392;7.482;2022-09-01T12:43:37;100995.56;;;27.40;34.29
4981;BME280;2507;50.392;7.482;2022-09-01T12:46:04;100986.84;;;27.51;34.19
4981;BME280;2507;50.392;7.482;2022-09-01T12:48:38;100988.94;;;27.43;33.91
4981;BME280;2507;50.392;7.482;2022-09-01T12:51:19;100984.13;;;27.51;33.90
4981;BME280;2507;50.392;7.482;2022-09-01T12:53:54;100971.06;;;27.55;33.75
4981;BME280;2507;50.392;7.482;2022-09-01T12:56:36;100977.06;;;27.57;34.19
4981;BME280;2507;50.392;7.482;2022-09-01T12:59:14;100982.06;;;27.60;33.79
4981;BME280;2507;50.392;7.482;2022-09-01T13:01:44;100983.72;;;27.61;33.54
4981;BME280;2507;50.392;7.482;2022-09-01T13:04:11;100973.78;;;27.29;34.07
4981;BME280;2507;50.392;7.482;2022-09-01T13:06:36;100972.50;;;27.11;35.06
4981;BME280;2507;50.392;7.482;2022-09-01T13:09:02;100970.47;;;27.40;34.00
4981;BME280;2507;50.392;7.482;2022-09-01T13:11:27;100967.56;;;27.54;33.91
4981;BME280;2507;50.392;7.482;2022-09-01T13:13:53;100963.34;;;27.78;33.28
4981;BME280;2507;50.392;7.482;2022-09-01T13:16:18;100956.22;;;28.09;32.99
4981;BME280;2507;50.392;7.482;2022-09-01T13:18:43;100963.16;;;28.37;32.03
4981;BME280;2507;50.392;7.482;2022-09-01T13:21:09;100954.38;;;28.54;32.95
4981;BME280;2507;50.392;7.482;2022-09-01T13:23:34;100953.88;;;28.70;31.54
4981;BME280;2507;50.392;7.482;2022-09-01T13:25:59;100941.59;;;28.99;31.36
4981;BME280;2507;50.392;7.482;2022-09-01T13:28:25;100940.75;;;28.74;31.12
4981;BME280;2507;50.392;7.482;2022-09-01T13:30:54;100938.09;;;28.67;30.88
4981;BME280;2507;50.392;7.482;2022-09-01T13:33:20;100936.66;;;28.89;30.40
4981;BME280;2507;50.392;7.482;2022-09-01T13:35:46;100932.97;;;28.84;30.52
4981;BME280;2507;50.392;7.482;2022-09-01T13:38:11;100935.69;;;28.53;30.84
4981;BME280;2507;50.392;7.482;2022-09-01T13:40:40;100941.53;;;28.43;30.90
4981;BME280;2507;50.392;7.482;2022-09-01T13:43:05;100930.16;;;28.28;30.55
4981;BME280;2507;50.392;7.482;2022-09-01T13:45:31;100932.31;;;28.19;30.98
4981;BME280;2507;50.392;7.482;2022-09-01T13:47:56;100932.41;;;27.93;31.25
4981;BME280;2507;50.392;7.482;2022-09-01T13:50:22;100954.75;;;28.13;31.00
4981;BME280;2507;50.392;7.482;2022-09-01T13:52:55;100938.16;;;28.10;30.98
4981;BME280;2507;50.392;7.482;2022-09-01T13:55:26;100934.22;;;28.06;30.11
4981;BME280;2507;50.392;7.482;2022-09-01T13:57:52;100930.31;;;27.95;30.58
4981;BME280;2507;50.392;7.482;2022-09-01T14:00:20;100923.88;;;27.90;30.21
4981;BME280;2507;50.392;7.482;2022-09-01T14:02:50;100922.84;;;27.84;30.45
4981;BME280;2507;50.392;7.482;2022-09-01T14:05:23;100916.44;;;27.85;30.71
4981;BME280;2507;50.392;7.482;2022-09-01T14:07:48;100921.59;;;27.87;30.51